Time;durP1;ratioP1;P1;durP2;ratioP2;P2;SDS_P1;SDS_P2;PMS_P1;PMS_P2;Temp;Humidity;BMP_temperature;BMP_pressure;BME280_temperature;BME280_humidity;BME280_pressure;Samples;Min_cycle;Max_cycle;Signal;HPM_P1;HPM_P2
2024/02/06 00:02:17;;;;;;;9.7;4.6;;;;;;;4.9;68.80859;941.0697;;;;
2024/02/06 00:04:42;;;;;;;6.8;3.9;;;;;;;4.94;68.91602;941.0213;;;;
2024/02/06 00:07:08;;;;;;;6.2;3.8;;;;;;;5.07;68.59766;940.9338;;;;
2024/02/06 00:09:32;;;;;;;7;3.7;;;;;;;4.83;68.9209;940.9324;;;;
2024/02/06 00:11:58;;;;;;;7.4;4.3;;;;;;;4.76;69.20215;940.8965;;;;
2024/02/06 00:14:23;;;;;;;6.1;3.5;;;;;;;4.69;69.28027;940.853;;;;
2024/02/06 00:16:48;;;;;;;7.9;4.2;;;;;;;4.86;69.61133;940.7977;;;;
2024/02/06 00:19:13;;;;;;;6.4;3.8;;;;;;;4.85;69.22852;940.8416;;;;
2024/02/06 00:21:38;;;;;;;6.9;4.2;;;;;;;4.88;69.2207;940.9119;;;;
2024/02/06 00:24:03;;;;;;;10.1;4.6;;;;;;;4.82;69.29102;940.8839;;;;
2024/02/06 00:26:29;;;;;;;7.1;3.9;;;;;;;4.81;69.55859;940.8883;;;;
2024/02/06 00:28:54;;;;;;;7.2;3.6;;;;;;;4.79;69.73633;940.9055;;;;
2024/02/06 00:31:19;;;;;;;7.7;3.9;;;;;;;4.81;69.41113;940.7288;;;;
2024/02/06 00:33:44;;;;;;;5.9;3.6;;;;;;;4.72;69.53223;940.8122;;;;
2024/02/06 00:36:09;;;;;;;9.7;6.7;;;;;;;4.65;69.64648;940.8177;;;;
2024/02/06 00:38:34;;;;;;;15.2;13.7;;;;;;;4.52;69.72559;940.8735;;;;
2024/02/06 00:41:00;;;;;;;7.7;5.9;;;;;;;4.76;69.25879;940.8025;;;;
2024/02/06 00:43:25;;;;;;;5.3;4.2;;;;;;;4.57;69.56543;940.7796;;;;
2024/02/06 00:45:50;;;;;;;8.5;4.1;;;;;;;4.71;69.49902;940.8767;;;;
2024/02/06 00:48:15;;;;;;;6.4;3.8;;;;;;;4.47;70.14551;940.7911;;;;
2024/02/06 00:50:40;;;;;;;5.8;3.5;;;;;;;4.5;70.31738;940.8505;;;;
2024/02/06 00:53:05;;;;;;;5.8;3.1;;;;;;;4.53;70.29102;940.7541;;;;
2024/02/06 00:55:30;;;;;;;7.6;3.2;;;;;;;4.42;70.38477;940.8303;;;;
2024/02/06 00:57:55;;;;;;;7.5;3.7;;;;;;;4.49;70.81348;940.7855;;;;
2024/02/06 01:00:21;;;;;;;6.3;3.4;;;;;;;4.5;70.31934;940.7662;;;;
2024/02/06 01:02:46;;;;;;;5.8;3.2;;;;;;;4.49;70.3291;940.6121;;;;
2024/02/06 01:05:11;;;;;;;6.2;3;;;;;;;4.62;69.74219;940.6848;;;;
2024/02/06 01:07:36;;;;;;;4.9;2.9;;;;;;;4.54;69.85254;940.7511;;;;
2024/02/06 01:10:01;;;;;;;8.6;4.7;;;;;;;4.38;70.23242;940.8066;;;;
2024/02/06 01:12:26;;;;;;;5.7;3.7;;;;;;;4.3;70.36523;940.7776;;;;
2024/02/06 01:14:51;;;;;;;5.1;3;;;;;;;4.21;70.70996;940.7421;;;;
2024/02/06 01:17:18;;;;;;;5.7;3.2;;;;;;;4.34;70.40527;940.7531;;;;
2024/02/06 01:19:41;;;;;;;7.2;3.2;;;;;;;4.46;70.28906;940.7576;;;;
2024/02/06 01:22:06;;;;;;;5.1;2.7;;;;;;;4.33;70.39063;940.7698;;;;
2024/02/06 01:24:31;;;;;;;6.7;2.6;;;;;;;4.17;70.72559;940.6458;;;;
2024/02/06 01:26:56;;;;;;;6;2.5;;;;;;;4.14;70.97949;940.6422;;;;
2024/02/06 01:29:22;;;;;;;5.3;2.6;;;;;;;4.24;71.08594;940.5309;;;;
2024/02/06 01:31:47;;;;;;;9.1;3.7;;;;;;;4.3;70.64551;940.6836;;;;
2024/02/06 01:34:12;;;;;;;7.4;3.5;;;;;;;4.33;70.42578;940.5438;;;;
2024/02/06 01:36:37;;;;;;;6.3;3.3;;;;;;;4.42;70.10352;940.5458;;;;
2024/02/06 01:39:02;;;;;;;7.5;3.5;;;;;;;4.33;70.40234;940.5917;;;;
2024/02/06 01:41:27;;;;;;;5.2;2.7;;;;;;;4.23;70.66992;940.6625;;;;
2024/02/06 01:43:53;;;;;;;6.9;2.7;;;;;;;4.21;71.14941;940.6914;;;;
2024/02/06 01:46:17;;;;;;;6.9;3.1;;;;;;;4.28;70.77734;940.6042;;;;
2024/02/06 01:48:42;;;;;;;4.5;2.7;;;;;;;4.36;70.27441;940.5598;;;;
2024/02/06 01:51:08;;;;;;;4.3;2.3;;;;;;;4.53;69.15234;940.5797;;;;
2024/02/06 01:53:33;;;;;;;6.7;2.4;;;;;;;4.49;69.24805;940.4978;;;;
2024/02/06 01:55:58;;;;;;;7.1;2.4;;;;;;;4.33;69.63672;940.4545;;;;
2024/02/06 01:58:23;;;;;;;6.4;2.6;;;;;;;4.34;69.79688;940.3786;;;;
2024/02/06 02:00:48;;;;;;;3.6;2.1;;;;;;;4.16;70.3877;940.2403;;;;
2024/02/06 02:03:13;;;;;;;4.3;2.2;;;;;;;4.26;70.37012;940.338;;;;
2024/02/06 02:05:39;;;;;;;4.1;2;;;;;;;4.22;70.49707;940.312;;;;
2024/02/06 02:08:04;;;;;;;3.8;1.8;;;;;;;4.2;70.58496;940.2582;;;;
2024/02/06 02:10:29;;;;;;;3.2;1.7;;;;;;;4.13;70.69727;940.343;;;;
2024/02/06 02:12:54;;;;;;;3;2.1;;;;;;;4.1;71.25293;940.2174;;;;
2024/02/06 02:15:19;;;;;;;5.1;1.9;;;;;;;4.13;71.2832;940.3236;;;;
2024/02/06 02:17:44;;;;;;;3.6;1.8;;;;;;;4.06;71.16895;940.2587;;;;
2024/02/06 02:20:09;;;;;;;3.9;1.8;;;;;;;4.13;71.05859;940.259;;;;
2024/02/06 02:22:34;;;;;;;3.4;1.7;;;;;;;4.16;71.53516;940.2457;;;;
2024/02/06 02:25:00;;;;;;;4.2;1.7;;;;;;;4;71.63184;940.2277;;;;
2024/02/06 02:27:24;;;;;;;3.5;1.4;;;;;;;4.01;71.46484;940.1805;;;;
2024/02/06 02:29:50;;;;;;;2.9;1.8;;;;;;;4.1;71.52344;940.1899;;;;
2024/02/06 02:32:15;;;;;;;2.7;2;;;;;;;4.16;71.18555;940.226;;;;
2024/02/06 02:34:40;;;;;;;6.3;1.9;;;;;;;4.28;70.57422;940.1628;;;;
2024/02/06 02:37:05;;;;;;;4.7;2.1;;;;;;;4.21;70.78809;940.1404;;;;
2024/02/06 02:39:31;;;;;;;3.6;2;;;;;;;4.05;70.875;940.0645;;;;
2024/02/06 02:41:55;;;;;;;4.3;1.7;;;;;;;4.05;70.7168;940.0552;;;;
2024/02/06 02:44:21;;;;;;;3.1;1.8;;;;;;;4.09;70.84668;940.0374;;;;
2024/02/06 02:46:45;;;;;;;4.9;2.2;;;;;;;4.06;70.79785;939.9473;;;;
2024/02/06 02:49:12;;;;;;;3.9;2.1;;;;;;;4.14;70.56348;939.9938;;;;
2024/02/06 02:51:36;;;;;;;3.7;2.2;;;;;;;3.96;71.26465;939.9529;;;;
2024/02/06 02:54:01;;;;;;;3.7;1.9;;;;;;;4.1;70.73633;939.9291;;;;
2024/02/06 02:56:26;;;;;;;4.1;2.1;;;;;;;3.97;71.00684;939.9305;;;;
2024/02/06 02:58:51;;;;;;;3.8;1.8;;;;;;;3.9;71.0752;939.9161;;;;
2024/02/06 03:01:17;;;;;;;2.8;1.9;;;;;;;3.91;71.21191;939.8906;;;;
2024/02/06 03:03:42;;;;;;;2.8;1.8;;;;;;;3.98;71.31348;939.8553;;;;
2024/02/06 03:06:07;;;;;;;3.5;1.9;;;;;;;4.04;71.1875;939.8853;;;;
2024/02/06 03:08:32;;;;;;;4.1;2.1;;;;;;;3.9;71.58105;939.8334;;;;
2024/02/06 03:10:57;;;;;;;4.4;2.3;;;;;;;4.04;71.08691;939.8483;;;;
2024/02/06 03:13:22;;;;;;;3.7;2;;;;;;;4;71.39551;939.8142;;;;
2024/02/06 03:15:47;;;;;;;2.5;1.9;;;;;;;4.18;70.71582;939.7838;;;;
2024/02/06 03:18:12;;;;;;;2.5;1.7;;;;;;;4.08;70.76855;939.745;;;;
2024/02/06 03:20:38;;;;;;;4.4;2;;;;;;;3.98;70.77441;939.8159;;;;
2024/02/06 03:23:03;;;;;;;5;1.8;;;;;;;3.98;71.03125;939.6763;;;;
2024/02/06 03:25:28;;;;;;;3.3;1.8;;;;;;;4.03;70.81543;939.7304;;;;
2024/02/06 03:27:54;;;;;;;3.4;1.5;;;;;;;4.13;70.42676;939.6984;;;;
2024/02/06 03:30:18;;;;;;;3.2;1.7;;;;;;;3.98;70.96484;939.7135;;;;
2024/02/06 03:32:43;;;;;;;5.1;2.5;;;;;;;3.94;71.03613;939.6601;;;;
2024/02/06 03:35:09;;;;;;;17.3;5.4;;;;;;;3.76;71.43359;939.5861;;;;
2024/02/06 03:37:33;;;;;;;13;4.5;;;;;;;3.8;71.44141;939.705;;;;
2024/02/06 03:39:58;;;;;;;7.6;3.1;;;;;;;3.94;71.2373;939.6323;;;;
2024/02/06 03:42:24;;;;;;;5.2;2.6;;;;;;;3.97;71.12109;939.5683;;;;
2024/02/06 03:44:49;;;;;;;8.5;2.9;;;;;;;4.07;70.56445;939.6328;;;;
2024/02/06 03:47:14;;;;;;;3.9;2;;;;;;;3.8;71.31738;939.6809;;;;
2024/02/06 03:49:39;;;;;;;4.7;2.2;;;;;;;3.68;72.09375;939.5925;;;;
2024/02/06 03:52:04;;;;;;;4.1;2.6;;;;;;;3.59;72.10156;939.5984;;;;
2024/02/06 03:54:29;;;;;;;4;2.2;;;;;;;3.54;72.19336;939.6241;;;;
2024/02/06 03:56:55;;;;;;;4.4;1.9;;;;;;;3.62;71.20703;939.5603;;;;
2024/02/06 03:59:20;;;;;;;5.7;1.8;;;;;;;3.58;71.22363;939.4942;;;;
2024/02/06 04:02:30;;;;;;;3.6;1.7;;;;;;;3.8;70.49707;939.6589;;;;
2024/02/06 04:04:55;;;;;;;4.8;1.7;;;;;;;3.66;70.78711;939.5463;;;;
2024/02/06 04:07:21;;;;;;;3.4;2.6;;;;;;;3.87;70.28125;939.502;;;;
2024/02/06 04:09:45;;;;;;;5;3.3;;;;;;;3.74;70.58594;939.5231;;;;
2024/02/06 04:12:11;;;;;;;4.9;2.2;;;;;;;3.85;70.33398;939.4667;;;;
2024/02/06 04:14:36;;;;;;;3.4;2.1;;;;;;;3.66;71.14746;939.5322;;;;
2024/02/06 04:17:01;;;;;;;2.9;1.7;;;;;;;3.86;70.61816;939.4309;;;;
2024/02/06 04:19:26;;;;;;;3.4;1.9;;;;;;;3.84;70.33398;939.4044;;;;
2024/02/06 04:21:51;;;;;;;4.4;2.7;;;;;;;3.76;70.88281;939.5524;;;;
2024/02/06 04:24:17;;;;;;;4.1;2.1;;;;;;;3.76;70.93848;939.4475;;;;
2024/02/06 04:26:42;;;;;;;3.2;2;;;;;;;3.67;71.21582;939.438;;;;
2024/02/06 04:29:06;;;;;;;5;2.2;;;;;;;3.63;71.30957;939.4302;;;;
2024/02/06 04:31:32;;;;;;;5.3;1.8;;;;;;;3.6;71.50684;939.5397;;;;
2024/02/06 04:33:56;;;;;;;5.6;2.5;;;;;;;3.65;71.5498;939.4324;;;;
2024/02/06 04:36:22;;;;;;;5.7;2.6;;;;;;;3.64;71.43652;939.5062;;;;
2024/02/06 04:38:46;;;;;;;5;3.1;;;;;;;3.51;71.57227;939.4697;;;;
2024/02/06 04:41:12;;;;;;;3.5;2.1;;;;;;;3.51;71.57031;939.4246;;;;
2024/02/06 04:43:37;;;;;;;5.5;2.6;;;;;;;3.58;71.58301;939.4955;;;;
2024/02/06 04:46:02;;;;;;;9.9;5.1;;;;;;;3.58;72.34668;939.4241;;;;
2024/02/06 04:48:27;;;;;;;8.6;5.4;;;;;;;3.52;72.26855;939.3943;;;;
2024/02/06 04:50:52;;;;;;;6.2;3.2;;;;;;;3.54;71.94629;939.3917;;;;
2024/02/06 04:53:17;;;;;;;4.2;3.1;;;;;;;3.65;71.66211;939.3531;;;;
2024/02/06 04:55:42;;;;;;;6.4;3.3;;;;;;;3.69;71.35352;939.3929;;;;
2024/02/06 04:58:07;;;;;;;5.6;2.8;;;;;;;3.51;71.72949;939.2808;;;;
2024/02/06 05:00:33;;;;;;;4.2;2.6;;;;;;;3.42;71.96094;939.238;;;;
2024/02/06 05:02:58;;;;;;;4.6;2.5;;;;;;;3.44;71.91992;939.2189;;;;
2024/02/06 05:05:23;;;;;;;3.2;2.1;;;;;;;3.43;71.87109;939.2405;;;;
2024/02/06 05:07:48;;;;;;;3.5;2;;;;;;;3.33;71.92383;939.1816;;;;
2024/02/06 05:10:13;;;;;;;4.4;2.4;;;;;;;3.48;71.58887;939.1836;;;;
2024/02/06 05:12:38;;;;;;;4.8;3;;;;;;;3.39;71.97754;939.1522;;;;
2024/02/06 05:15:03;;;;;;;4.5;2.9;;;;;;;3.28;72.07129;939.0758;;;;
2024/02/06 05:17:28;;;;;;;3.8;2.2;;;;;;;3.43;71.1748;939.0751;;;;
2024/02/06 05:19:53;;;;;;;5.8;2.5;;;;;;;3.26;71.83301;938.9955;;;;
2024/02/06 05:22:19;;;;;;;3.5;2.3;;;;;;;3.27;72.10254;938.9847;;;;
2024/02/06 05:24:45;;;;;;;5.3;2.6;;;;;;;3.36;71.75977;939.0323;;;;
2024/02/06 05:27:09;;;;;;;4.3;2.5;;;;;;;3.46;71.6416;939.0663;;;;
2024/02/06 05:29:35;;;;;;;4.1;3;;;;;;;3.32;72.0459;939.0009;;;;
2024/02/06 05:31:59;;;;;;;6.2;2.7;;;;;;;3.42;71.99512;939.0151;;;;
2024/02/06 05:34:25;;;;;;;3.9;2.3;;;;;;;3.36;72.23145;938.9899;;;;
2024/02/06 05:36:49;;;;;;;10.5;3.5;;;;;;;3.44;72.33496;939.1199;;;;
2024/02/06 05:39:15;;;;;;;7.2;3.5;;;;;;;3.42;72.15039;939.0591;;;;
2024/02/06 05:41:40;;;;;;;14.1;12.7;;;;;;;3.4;72.38379;939.0669;;;;
2024/02/06 05:44:05;;;;;;;12.2;11;;;;;;;3.48;72.34082;939.1086;;;;
2024/02/06 05:46:30;;;;;;;7.1;4.7;;;;;;;3.28;72.73242;939.0684;;;;
2024/02/06 05:48:55;;;;;;;7.2;4.3;;;;;;;3.36;72.67871;939.062;;;;
2024/02/06 05:51:20;;;;;;;6.4;3.7;;;;;;;3.45;72.48242;939.0453;;;;
2024/02/06 05:53:45;;;;;;;5.3;3.1;;;;;;;3.38;72.64844;939.0439;;;;
2024/02/06 05:56:10;;;;;;;4.4;2.4;;;;;;;3.38;72.73828;939.0329;;;;
2024/02/06 05:58:38;;;;;;;3.5;2.3;;;;;;;3.19;73.36914;938.9727;;;;
2024/02/06 06:01:00;;;;;;;2.8;2.1;;;;;;;3.16;73.50879;939.0251;;;;
2024/02/06 06:03:26;;;;;;;5.8;2.5;;;;;;;3.07;73.57227;938.9913;;;;
2024/02/06 06:05:51;;;;;;;6.1;3.1;;;;;;;3.07;73.48242;939.0533;;;;
2024/02/06 06:08:16;;;;;;;8;3.7;;;;;;;3.04;73.5918;939.0058;;;;
2024/02/06 06:10:41;;;;;;;6.2;3.7;;;;;;;3.14;73.37109;939.0259;;;;
2024/02/06 06:13:06;;;;;;;7.4;3.8;;;;;;;3.08;73.54102;939.03;;;;
2024/02/06 06:15:31;;;;;;;5.3;3.3;;;;;;;3.11;73.55566;938.9634;;;;
2024/02/06 06:17:56;;;;;;;7.2;4;;;;;;;3.16;72.98145;939.0455;;;;
2024/02/06 06:20:21;;;;;;;11.3;4.8;;;;;;;3.16;73.11816;938.9891;;;;
2024/02/06 06:22:46;;;;;;;12.3;5.2;;;;;;;3.22;73.2959;939.0916;;;;
2024/02/06 06:25:11;;;;;;;9;5.6;;;;;;;3.27;72.7998;939.0392;;;;
2024/02/06 06:27:41;;;;;;;9.3;6;;;;;;;3.05;73.61523;939.0228;;;;
2024/02/06 06:30:02;;;;;;;14.5;7.4;;;;;;;3.11;74.27441;939.0798;;;;
2024/02/06 06:32:27;;;;;;;10.9;6.6;;;;;;;2.99;74.3877;938.9955;;;;
2024/02/06 06:34:52;;;;;;;13.7;6.3;;;;;;;3.09;74.21484;939.0696;;;;
2024/02/06 06:37:18;;;;;;;13.4;6.2;;;;;;;3.06;74.08789;939.0364;;;;
2024/02/06 06:39:42;;;;;;;11.1;5.1;;;;;;;2.96;74.27246;939.1731;;;;
2024/02/06 06:42:07;;;;;;;9.2;4.6;;;;;;;2.93;74.35645;939.1364;;;;
2024/02/06 06:44:33;;;;;;;8.8;4.8;;;;;;;3.03;74.56445;939.1704;;;;
2024/02/06 06:46:58;;;;;;;9;5.4;;;;;;;3.09;74.6875;939.1208;;;;
2024/02/06 06:49:23;;;;;;;10.8;5.7;;;;;;;3.05;74.65723;939.2311;;;;
2024/02/06 06:51:48;;;;;;;11.1;5.5;;;;;;;3.05;74.91504;939.1855;;;;
2024/02/06 06:54:13;;;;;;;11;6.2;;;;;;;3.02;74.82031;939.2614;;;;
2024/02/06 06:56:38;;;;;;;13.1;7.2;;;;;;;3;75.33398;939.1735;;;;
2024/02/06 06:59:03;;;;;;;11.6;5.9;;;;;;;2.97;75.18164;939.2432;;;;
2024/02/06 07:01:29;;;;;;;7.9;4.4;;;;;;;2.96;74.60742;939.1855;;;;
2024/02/06 07:03:54;;;;;;;10.4;4.5;;;;;;;2.98;74.3877;939.2012;;;;
2024/02/06 07:06:20;;;;;;;10.3;5.6;;;;;;;3.21;73.70898;939.103;;;;
2024/02/06 07:08:44;;;;;;;12.7;5.6;;;;;;;3.27;73.77637;939.1744;;;;
2024/02/06 07:11:10;;;;;;;9.3;5.1;;;;;;;3.23;73.82422;939.1753;;;;
2024/02/06 07:13:35;;;;;;;16.6;6.4;;;;;;;3.32;73.43652;939.137;;;;
2024/02/06 07:16:00;;;;;;;43.8;20.9;;;;;;;3.65;72.63965;939.1725;;;;
2024/02/06 07:18:25;;;;;;;17.7;12.4;;;;;;;3.94;71.82324;939.137;;;;
2024/02/06 07:20:51;;;;;;;12.3;8.8;;;;;;;4.4;70.4248;939.169;;;;
2024/02/06 07:23:16;;;;;;;9.8;6.1;;;;;;;4.84;69.32813;939.0867;;;;
2024/02/06 07:25:41;;;;;;;9.4;4.3;;;;;;;5.27;67.17676;939.3005;;;;
2024/02/06 07:28:06;;;;;;;11.8;5.3;;;;;;;5.44;65.72363;939.1053;;;;
2024/02/06 07:30:31;;;;;;;16;9.1;;;;;;;5.79;65.56348;939.3275;;;;
2024/02/06 07:32:56;;;;;;;28.3;15.9;;;;;;;5.97;64.54102;939.2036;;;;
2024/02/06 07:35:21;;;;;;;29.9;16.2;;;;;;;6.4;63.02148;939.3834;;;;
2024/02/06 07:37:46;;;;;;;17.6;8.3;;;;;;;6.51;63.53516;939.2894;;;;
2024/02/06 07:40:11;;;;;;;12.9;6.9;;;;;;;6.73;61.35059;939.3722;;;;
2024/02/06 07:42:37;;;;;;;15.4;6.7;;;;;;;6.88;61.46191;939.2961;;;;
2024/02/06 07:45:02;;;;;;;13.7;8.2;;;;;;;7.01;61.34473;939.2863;;;;
2024/02/06 07:47:27;;;;;;;12.9;8.1;;;;;;;7.13;60.43262;939.2083;;;;
2024/02/06 07:49:52;;;;;;;17.5;8.3;;;;;;;7.48;60.24316;939.205;;;;
2024/02/06 07:52:17;;;;;;;18.1;9.7;;;;;;;7.52;58.88867;939.1568;;;;
2024/02/06 07:54:43;;;;;;;15.4;7.9;;;;;;;7.72;59.88086;939.251;;;;
2024/02/06 07:57:07;;;;;;;12.5;7.2;;;;;;;7.97;57.91797;939.2058;;;;
2024/02/06 07:59:32;;;;;;;13.4;7.3;;;;;;;8.26;58.27539;939.1796;;;;
2024/02/06 08:01:57;;;;;;;12;6.9;;;;;;;8.28;58.41504;939.1579;;;;
2024/02/06 08:04:22;;;;;;;13.6;6.4;;;;;;;8.55;57.47363;939.1564;;;;
2024/02/06 08:06:48;;;;;;;13.5;6.4;;;;;;;8.59;55.47852;939.0865;;;;
2024/02/06 08:09:15;;;;;;;16.9;6.9;;;;;;;8.6;55.88867;939.1429;;;;
2024/02/06 08:11:39;;;;;;;12.4;5.6;;;;;;;8.8;55.57422;939.1207;;;;
2024/02/06 08:14:03;;;;;;;32.5;14.8;;;;;;;9.12;55.35254;939.1535;;;;
2024/02/06 08:16:28;;;;;;;35.4;17;;;;;;;9.39;54.09082;939.1072;;;;
2024/02/06 08:18:53;;;;;;;27.1;13;;;;;;;9.53;53.44727;939.1541;;;;
2024/02/06 08:21:19;;;;;;;19.8;9.5;;;;;;;9.83;51.7627;939.108;;;;
2024/02/06 08:23:44;;;;;;;19.8;8.7;;;;;;;10.1;50.98535;938.9956;;;;
2024/02/06 08:26:09;;;;;;;19.8;9.9;;;;;;;10.33;51.87891;939.1039;;;;
2024/02/06 08:28:34;;;;;;;17.2;8;;;;;;;10.53;51.46875;939.1008;;;;
2024/02/06 08:30:59;;;;;;;10.4;6.4;;;;;;;10.87;49.95605;939.0436;;;;
2024/02/06 08:33:24;;;;;;;11.8;6;;;;;;;11.07;48.56152;939.0783;;;;
2024/02/06 08:35:52;;;;;;;10;5.6;;;;;;;10.86;48.59473;939.0012;;;;
2024/02/06 08:38:15;;;;;;;13.1;7.4;;;;;;;10.98;49.33984;939.0461;;;;
2024/02/06 08:40:40;;;;;;;13.9;7.1;;;;;;;10.96;50.7793;939.0284;;;;
2024/02/06 08:43:05;;;;;;;15;7.3;;;;;;;10.8;49.56055;939.0211;;;;
2024/02/06 08:45:30;;;;;;;14.4;6.5;;;;;;;10.63;51.02539;939.0751;;;;
2024/02/06 08:47:56;;;;;;;12.3;6.3;;;;;;;10.52;50.36035;938.9662;;;;
2024/02/06 08:50:20;;;;;;;15.1;6.7;;;;;;;10.59;51.53418;938.9462;;;;
2024/02/06 08:52:45;;;;;;;15.8;6.7;;;;;;;10.51;51.13574;938.8873;;;;
2024/02/06 08:55:10;;;;;;;15.5;5.7;;;;;;;10.46;51.1875;938.8716;;;;
2024/02/06 08:57:36;;;;;;;10.6;4.4;;;;;;;10.47;50.34375;938.8582;;;;
2024/02/06 09:00:01;;;;;;;11.7;4.4;;;;;;;10.5;49.91406;938.8148;;;;
2024/02/06 09:02:27;;;;;;;10.9;4.2;;;;;;;10.56;49.98926;938.742;;;;
2024/02/06 09:04:52;;;;;;;9.7;3.6;;;;;;;10.66;49.56641;938.7513;;;;
2024/02/06 09:07:16;;;;;;;8.4;3;;;;;;;10.89;48.86133;938.6987;;;;
2024/02/06 09:09:41;;;;;;;12.8;3.4;;;;;;;10.93;48.96777;938.6624;;;;
2024/02/06 09:12:06;;;;;;;9.2;2.9;;;;;;;10.89;48.42676;938.6637;;;;
2024/02/06 09:14:31;;;;;;;8.5;2.5;;;;;;;10.81;49.38965;938.6287;;;;
2024/02/06 09:16:56;;;;;;;8.6;2.9;;;;;;;10.96;48.60645;938.6459;;;;
2024/02/06 09:19:21;;;;;;;6.7;2.5;;;;;;;11.02;49.45898;938.4882;;;;
2024/02/06 09:22:39;;;;;;;8.6;2.5;;;;;;;11.13;48.61426;938.5081;;;;
2024/02/06 09:25:05;;;;;;;5;2.2;;;;;;;11.39;47.26074;938.3956;;;;
2024/02/06 09:27:29;;;;;;;9.6;3.1;;;;;;;11.73;47.04492;938.4906;;;;
2024/02/06 09:29:54;;;;;;;8;3.5;;;;;;;11.95;46.49609;938.3821;;;;
2024/02/06 09:32:19;;;;;;;5.3;2.4;;;;;;;12.03;45.24414;938.3141;;;;
2024/02/06 09:34:44;;;;;;;3.9;1.8;;;;;;;12.25;44.99219;938.3566;;;;
2024/02/06 09:37:09;;;;;;;4.7;1.7;;;;;;;12.79;44.40527;938.375;;;;
2024/02/06 09:39:34;;;;;;;5.4;2.1;;;;;;;13.1;44.35645;938.383;;;;
2024/02/06 09:42:01;;;;;;;4.2;1.6;;;;;;;13.77;43.40039;938.4304;;;;
2024/02/06 09:44:28;;;;;;;3.7;1.6;;;;;;;14.14;43.86328;938.5178;;;;
2024/02/06 09:46:50;;;;;;;3.3;1.8;;;;;;;14.55;41.86523;938.459;;;;
2024/02/06 09:49:17;;;;;;;3;1.6;;;;;;;14.55;41.12891;938.5328;;;;
2024/02/06 09:51:41;;;;;;;5;1.7;;;;;;;14.69;42.08594;938.481;;;;
2024/02/06 09:54:05;;;;;;;5;1.8;;;;;;;14.85;40.84375;938.5292;;;;
2024/02/06 09:56:30;;;;;;;4.8;2.1;;;;;;;14.78;41.61035;938.5662;;;;
2024/02/06 09:58:57;;;;;;;4.4;2.2;;;;;;;14.64;42.10352;938.535;;;;
2024/02/06 10:01:21;;;;;;;4.5;2.1;;;;;;;14.73;41.89453;938.4952;;;;
2024/02/06 10:03:47;;;;;;;3.4;1.6;;;;;;;14.45;40.64551;938.5229;;;;
2024/02/06 10:06:11;;;;;;;2;1.4;;;;;;;14.54;39.83594;938.4849;;;;
2024/02/06 10:08:36;;;;;;;3;1.8;;;;;;;14.73;40.5332;938.5305;;;;
2024/02/06 10:11:01;;;;;;;4.1;2.1;;;;;;;14.56;42.22363;938.5712;;;;
2024/02/06 10:13:26;;;;;;;7.8;2.1;;;;;;;14.64;42.3457;938.5552;;;;
2024/02/06 10:15:51;;;;;;;2.5;1.6;;;;;;;14.71;41.47754;938.5162;;;;
2024/02/06 10:18:16;;;;;;;2.2;1.4;;;;;;;14.97;40.58984;938.5324;;;;
2024/02/06 10:20:41;;;;;;;4.2;1;;;;;;;15.12;39.47363;938.5549;;;;
2024/02/06 10:23:06;;;;;;;2.6;1.1;;;;;;;14.97;38.55957;938.5974;;;;
2024/02/06 10:25:31;;;;;;;1.7;1;;;;;;;14.72;37.91504;938.6011;;;;
2024/02/06 10:27:57;;;;;;;2;1.2;;;;;;;14.7;37.90234;938.5836;;;;
2024/02/06 10:30:22;;;;;;;2;1;;;;;;;14.63;37.82617;938.5759;;;;
2024/02/06 10:32:48;;;;;;;1.1;1;;;;;;;14.69;38.73145;938.5828;;;;
2024/02/06 10:35:12;;;;;;;1.1;1;;;;;;;14.73;38.85059;938.6002;;;;
2024/02/06 10:37:37;;;;;;;2.7;1.1;;;;;;;14.73;38.19336;938.6066;;;;
2024/02/06 10:40:03;;;;;;;3.7;1.2;;;;;;;14.66;37.86426;938.5951;;;;
2024/02/06 10:42:27;;;;;;;3.1;1.5;;;;;;;14.62;38.35645;938.4983;;;;
2024/02/06 10:44:52;;;;;;;4.3;2.1;;;;;;;14.27;39.20215;938.5336;;;;
2024/02/06 10:47:18;;;;;;;5.8;2.1;;;;;;;14.26;39.10742;938.4744;;;;
2024/02/06 10:49:43;;;;;;;4.4;1.7;;;;;;;14.32;37.89258;938.4589;;;;
2024/02/06 10:52:08;;;;;;;2.8;1.5;;;;;;;14.19;38.96387;938.4785;;;;
2024/02/06 10:54:33;;;;;;;4.9;1.7;;;;;;;14.42;38.65039;938.3714;;;;
2024/02/06 10:56:58;;;;;;;13.3;6.7;;;;;;;14.46;37.55859;938.2969;;;;
2024/02/06 10:59:23;;;;;;;5.8;2.9;;;;;;;14.42;39.03027;938.3304;;;;
2024/02/06 11:01:48;;;;;;;4.4;2.3;;;;;;;14.65;38.82031;938.4052;;;;
2024/02/06 11:04:13;;;;;;;5.1;1.9;;;;;;;14.86;38.6543;938.3271;;;;
2024/02/06 11:06:38;;;;;;;5.8;1.7;;;;;;;14.96;38.84863;938.3192;;;;
2024/02/06 11:09:04;;;;;;;5.2;1.5;;;;;;;15.16;38.8418;938.2545;;;;
2024/02/06 11:11:28;;;;;;;3;1.4;;;;;;;14.92;38.9707;938.3035;;;;
2024/02/06 11:13:55;;;;;;;2.8;1.3;;;;;;;15.03;38.94727;938.0968;;;;
2024/02/06 11:16:19;;;;;;;3;1.2;;;;;;;15.32;38.45215;938.2126;;;;
2024/02/06 11:18:44;;;;;;;3.5;1.4;;;;;;;15.43;37.36621;938.199;;;;
2024/02/06 11:21:10;;;;;;;3.1;1.2;;;;;;;15.56;36.99512;938.1649;;;;
2024/02/06 11:23:34;;;;;;;2.6;1.2;;;;;;;15.61;38.30469;938.1623;;;;
2024/02/06 11:25:59;;;;;;;3.1;1.3;;;;;;;15.15;37.6875;938.0798;;;;
2024/02/06 11:28:24;;;;;;;2;1.4;;;;;;;15.1;38.62891;938.0081;;;;
2024/02/06 11:30:50;;;;;;;2;1.2;;;;;;;15.13;38.40234;938.0053;;;;
2024/02/06 11:33:18;;;;;;;5.1;1.5;;;;;;;15.24;38.26172;938.0376;;;;
2024/02/06 11:35:40;;;;;;;4.4;1.4;;;;;;;15.35;38.12109;937.9724;;;;
2024/02/06 11:38:05;;;;;;;2.2;1.5;;;;;;;15.42;38.46094;937.9905;;;;
2024/02/06 11:40:31;;;;;;;3.1;1.7;;;;;;;15.36;38.76855;937.9048;;;;
2024/02/06 11:42:55;;;;;;;2.6;1.3;;;;;;;15.4;38.41309;937.9615;;;;
2024/02/06 11:45:20;;;;;;;6.3;1.5;;;;;;;15.34;38.2002;937.8594;;;;
2024/02/06 11:47:45;;;;;;;2.3;1.3;;;;;;;15.28;39.02637;937.8311;;;;
2024/02/06 11:50:11;;;;;;;2.7;1.5;;;;;;;15.15;39.11816;937.8552;;;;
2024/02/06 11:52:35;;;;;;;2.5;1.4;;;;;;;15.05;38.5791;937.8287;;;;
2024/02/06 11:55:01;;;;;;;3.8;1.3;;;;;;;15.04;38.60059;937.7447;;;;
2024/02/06 11:57:26;;;;;;;4.5;1.1;;;;;;;14.94;39.44531;937.6972;;;;
2024/02/06 11:59:51;;;;;;;3.1;1.3;;;;;;;14.93;39.45605;937.7277;;;;
2024/02/06 12:02:17;;;;;;;3;1.3;;;;;;;14.87;39.53027;937.6584;;;;
2024/02/06 12:04:41;;;;;;;4;1.4;;;;;;;14.88;38.87598;937.5822;;;;
2024/02/06 12:07:07;;;;;;;1.6;1.1;;;;;;;14.84;38.62988;937.5945;;;;
2024/02/06 12:09:32;;;;;;;3.2;1.4;;;;;;;14.76;37.79199;937.6021;;;;
2024/02/06 12:11:57;;;;;;;4.6;1.4;;;;;;;14.83;37.53223;937.6139;;;;
2024/02/06 12:14:22;;;;;;;2.2;1.3;;;;;;;14.76;38.28809;937.5692;;;;
2024/02/06 12:16:47;;;;;;;3.3;1.3;;;;;;;14.72;38.24902;937.4942;;;;
2024/02/06 12:19:12;;;;;;;2.8;1.2;;;;;;;14.68;39.06543;937.4023;;;;
2024/02/06 12:21:37;;;;;;;2.4;1.3;;;;;;;14.67;39.50293;937.4;;;;
2024/02/06 12:24:04;;;;;;;3.3;1.4;;;;;;;14.67;39.87109;937.3872;;;;
2024/02/06 12:26:27;;;;;;;3.4;1.5;;;;;;;14.74;39.73926;937.4138;;;;
2024/02/06 12:28:53;;;;;;;1.7;1.1;;;;;;;14.77;39.21094;937.3719;;;;
2024/02/06 12:31:18;;;;;;;2.1;1.3;;;;;;;14.6;39.4043;937.3337;;;;
2024/02/06 12:33:44;;;;;;;3.4;1.1;;;;;;;14.56;40.17188;937.3027;;;;
2024/02/06 12:36:08;;;;;;;2.6;1.3;;;;;;;14.58;40.04688;937.2881;;;;
2024/02/06 12:38:33;;;;;;;2.6;1.3;;;;;;;14.51;40.14355;937.1861;;;;
2024/02/06 12:40:58;;;;;;;2.6;1.5;;;;;;;14.51;40.82422;937.2086;;;;
2024/02/06 12:43:23;;;;;;;3.4;1.5;;;;;;;14.54;40.27344;937.1611;;;;
2024/02/06 12:45:49;;;;;;;2;1.1;;;;;;;14.46;40.27734;937.1848;;;;
2024/02/06 12:48:14;;;;;;;2.3;1.1;;;;;;;14.52;40.73242;937.1884;;;;
2024/02/06 12:50:39;;;;;;;4.4;1.3;;;;;;;14.51;40.22461;937.1573;;;;
2024/02/06 12:53:04;;;;;;;4.7;1.5;;;;;;;14.55;40.14844;937.1258;;;;
2024/02/06 12:55:29;;;;;;;2.2;1.2;;;;;;;14.59;38.88379;937.0566;;;;
2024/02/06 12:57:54;;;;;;;3;1.4;;;;;;;14.6;38.66602;937.0179;;;;
2024/02/06 13:00:19;;;;;;;3;1.3;;;;;;;14.6;38.86133;936.9667;;;;
2024/02/06 13:02:44;;;;;;;3;1.2;;;;;;;14.58;39.58594;936.9556;;;;
2024/02/06 13:05:10;;;;;;;2.6;1.4;;;;;;;14.6;39.4043;936.8961;;;;
2024/02/06 13:07:35;;;;;;;3.1;1.4;;;;;;;14.6;39.85254;936.9394;;;;
2024/02/06 13:10:00;;;;;;;2.4;1.3;;;;;;;14.64;41.58594;936.9122;;;;
2024/02/06 13:12:25;;;;;;;4.2;1.7;;;;;;;14.49;43.0918;936.8778;;;;
2024/02/06 13:14:50;;;;;;;4.6;1.5;;;;;;;14.45;42.81152;936.9061;;;;
2024/02/06 13:17:15;;;;;;;3.2;1.6;;;;;;;14.34;44.33203;936.7855;;;;
2024/02/06 13:19:40;;;;;;;4;1.6;;;;;;;14.4;43.29102;936.8331;;;;
2024/02/06 13:22:05;;;;;;;4.1;1.8;;;;;;;14.45;43.72168;936.8044;;;;
2024/02/06 13:24:31;;;;;;;3.2;1.6;;;;;;;14.28;44.44238;936.7739;;;;
2024/02/06 13:26:55;;;;;;;5.5;1.5;;;;;;;14.24;44.42578;936.7726;;;;
2024/02/06 13:29:20;;;;;;;3;1.7;;;;;;;14.31;44.31836;936.8329;;;;
2024/02/06 13:31:46;;;;;;;5.4;1.7;;;;;;;14.25;43.69043;936.7957;;;;
2024/02/06 13:34:11;;;;;;;4.7;1.8;;;;;;;14.19;43.62695;936.8383;;;;
2024/02/06 13:36:36;;;;;;;5.5;1.5;;;;;;;14.17;44.12012;936.8215;;;;
2024/02/06 13:39:01;;;;;;;4.6;1.5;;;;;;;14.05;44.68262;936.7271;;;;
2024/02/06 13:41:26;;;;;;;2.7;1.9;;;;;;;14.06;43.16504;936.7422;;;;
2024/02/06 13:43:53;;;;;;;3.9;1.8;;;;;;;13.98;43.16797;936.6544;;;;
2024/02/06 13:46:16;;;;;;;4.1;1.7;;;;;;;13.69;43.72656;936.679;;;;
2024/02/06 13:48:41;;;;;;;4.2;2.2;;;;;;;13.77;44.2627;936.6537;;;;
2024/02/06 13:51:08;;;;;;;5.4;1.6;;;;;;;13.56;44.07031;936.6257;;;;
2024/02/06 13:53:32;;;;;;;5.1;1.9;;;;;;;13.64;44.2041;936.632;;;;
2024/02/06 13:55:58;;;;;;;2.6;1.5;;;;;;;13.49;44.1543;936.5828;;;;
2024/02/06 13:58:22;;;;;;;3;1.6;;;;;;;13.67;44.31055;936.655;;;;
2024/02/06 14:00:47;;;;;;;4.7;1.4;;;;;;;13.58;43.94531;936.5656;;;;
2024/02/06 14:03:12;;;;;;;4.2;1.6;;;;;;;13.57;43.79395;936.5889;;;;
2024/02/06 14:05:37;;;;;;;3.2;1.6;;;;;;;13.49;44.29297;936.5964;;;;
2024/02/06 14:08:02;;;;;;;6;2;;;;;;;13.42;44.26172;936.6312;;;;
2024/02/06 14:10:28;;;;;;;5.6;1.8;;;;;;;13.31;44.61816;936.6066;;;;
2024/02/06 14:12:53;;;;;;;2.6;1.8;;;;;;;13.22;44.60938;936.6236;;;;
2024/02/06 14:15:18;;;;;;;5.4;1.7;;;;;;;13.31;44.31934;936.6361;;;;
2024/02/06 14:17:44;;;;;;;4;1.6;;;;;;;13.37;44.13184;936.6342;;;;
2024/02/06 14:20:08;;;;;;;5.2;2.1;;;;;;;13.46;44.04785;936.5581;;;;